createdAt,value
2018-04-10T00:01:08.679Z,3.83
2018-04-10T00:03:37.731Z,4.23
2018-04-10T00:06:06.780Z,3.97
2018-04-10T00:08:35.824Z,4.70
2018-04-10T00:11:05.919Z,5.10
2018-04-10T00:13:34.953Z,4.70
2018-04-10T00:16:04.990Z,4.53
2018-04-10T00:21:12.307Z,4.73
2018-04-10T00:23:41.847Z,4.97
2018-04-10T00:26:10.924Z,4.70
2018-04-10T00:31:15.643Z,4.80
2018-04-10T00:33:45.652Z,4.90
2018-04-10T00:36:14.698Z,4.60
2018-04-10T00:38:43.748Z,5.00
2018-04-10T00:41:12.833Z,4.50
2018-04-10T00:43:41.870Z,5.93
2018-04-10T00:46:11.855Z,4.87
2018-04-10T00:48:40.892Z,4.80
2018-04-10T00:51:10.030Z,4.57
2018-04-10T00:53:39.252Z,4.93
2018-04-10T00:56:08.277Z,4.80
2018-04-10T00:58:37.339Z,4.40
2018-04-10T01:01:06.395Z,4.80
2018-04-10T01:03:36.371Z,5.20
2018-04-10T01:06:05.400Z,4.90
2018-04-10T01:08:34.574Z,4.70
2018-04-10T01:11:03.586Z,5.17
2018-04-10T01:13:33.599Z,5.32
2018-04-10T01:16:02.709Z,5.00
2018-04-10T01:18:31.752Z,4.80
2018-04-10T01:21:00.793Z,4.53
2018-04-10T01:23:29.835Z,5.00
2018-04-10T01:28:34.581Z,4.93
2018-04-10T01:31:03.621Z,5.00
2018-04-10T01:33:32.656Z,4.80
2018-04-10T01:36:01.709Z,5.20
2018-04-10T01:38:30.753Z,4.27
2018-04-10T01:40:59.949Z,4.60
2018-04-10T01:43:29.017Z,5.30
2018-04-10T01:45:58.057Z,4.77
2018-04-10T01:48:27.268Z,3.97
2018-04-10T01:50:56.309Z,4.20
2018-04-10T01:56:01.101Z,5.50
2018-04-10T01:58:30.136Z,5.55
2018-04-10T02:01:01.125Z,5.20
2018-04-10T02:03:37.818Z,5.10
2018-04-10T02:08:42.925Z,5.80
2018-04-10T02:11:11.970Z,5.45
2018-04-10T02:13:41.152Z,5.80
2018-04-10T02:16:10.176Z,7.97
2018-04-10T02:18:39.217Z,7.53
2018-04-10T02:21:08.266Z,5.97
2018-04-10T02:23:37.477Z,6.60
2018-04-10T02:26:06.518Z,5.93
2018-04-10T02:28:35.582Z,5.60
2018-04-10T02:31:04.616Z,5.77
2018-04-10T02:33:33.662Z,5.30
2018-04-10T02:36:03.721Z,5.60
2018-04-10T02:38:33.695Z,5.00
2018-04-10T02:41:02.741Z,4.60
2018-04-10T02:43:31.801Z,5.20
2018-04-10T02:46:00.868Z,6.27
2018-04-10T02:48:29.918Z,5.40
2018-04-10T02:50:58.992Z,5.62
2018-04-10T02:53:28.057Z,6.35
2018-04-10T02:58:33.065Z,5.60
2018-04-10T03:01:02.119Z,5.80
2018-04-10T03:03:31.144Z,5.23
2018-04-10T03:06:00.189Z,5.70
2018-04-10T03:08:29.249Z,5.50
2018-04-10T03:10:58.283Z,5.57
2018-04-10T03:13:27.320Z,5.50
2018-04-10T03:15:56.370Z,6.30
2018-04-10T03:18:26.325Z,5.10
2018-04-10T03:23:31.125Z,5.80
2018-04-10T03:26:00.354Z,5.72
2018-04-10T03:28:29.411Z,5.70
2018-04-10T03:30:59.782Z,6.30
2018-04-10T03:33:28.828Z,5.13
2018-04-10T03:35:57.908Z,5.23
2018-04-10T03:38:27.074Z,4.97
2018-04-10T03:40:56.100Z,5.72
2018-04-10T03:46:00.898Z,5.50
2018-04-10T03:48:40.706Z,6.15
2018-04-10T03:51:09.743Z,5.80
2018-04-10T03:53:38.850Z,5.67
2018-04-10T03:56:07.875Z,5.33
2018-04-10T03:58:37.113Z,5.07
2018-04-10T04:01:06.164Z,5.93
2018-04-10T04:03:35.237Z,5.33
2018-04-10T04:06:04.359Z,5.50
2018-04-10T04:08:33.540Z,5.13
2018-04-10T04:11:02.616Z,6.37
2018-04-10T04:13:31.826Z,5.90
2018-04-10T04:16:00.858Z,6.30
2018-04-10T04:18:48.054Z,6.43
2018-04-10T04:24:09.999Z,6.60
2018-04-10T04:26:39.984Z,5.83
2018-04-10T04:29:10.561Z,5.27
2018-04-10T04:31:39.626Z,6.70
2018-04-10T04:34:08.665Z,5.70
2018-04-10T04:36:37.943Z,6.10
2018-04-10T04:39:06.958Z,6.30
2018-04-10T04:44:11.702Z,7.32
2018-04-10T04:46:40.736Z,6.80
2018-04-10T04:49:10.006Z,6.80
2018-04-10T04:54:14.994Z,7.40
2018-04-10T04:56:44.043Z,7.65
2018-04-10T04:59:13.085Z,8.70
2018-04-10T05:01:42.756Z,8.20
2018-04-10T05:04:11.793Z,8.13
2018-04-10T05:06:41.129Z,8.00
2018-04-10T05:09:10.356Z,7.13
2018-04-10T05:11:39.385Z,6.53
2018-04-10T05:16:44.118Z,8.23
2018-04-10T05:21:48.492Z,8.90
2018-04-10T05:24:17.861Z,9.80
2018-04-10T05:26:46.912Z,8.90
2018-04-10T05:29:16.445Z,9.43
2018-04-10T05:34:21.223Z,9.38
2018-04-10T05:36:50.368Z,9.10
2018-04-10T05:39:19.402Z,8.30
2018-04-10T05:41:49.116Z,9.50
2018-04-10T05:44:18.166Z,9.67
2018-04-10T05:46:47.214Z,10.27
2018-04-10T05:49:16.593Z,8.90
2018-04-10T05:51:45.620Z,9.23
2018-04-10T05:54:21.570Z,9.80
2018-04-10T05:56:50.605Z,10.13
2018-04-10T05:59:19.755Z,9.70
2018-04-10T06:01:48.800Z,10.60
2018-04-10T06:04:17.854Z,11.70
2018-04-10T06:06:46.908Z,10.00
2018-04-10T06:09:16.216Z,10.67
2018-04-10T06:11:45.397Z,8.77
2018-04-10T06:16:50.178Z,11.48
2018-04-10T06:21:55.070Z,11.73
2018-04-10T06:24:24.178Z,10.77
2018-04-10T06:29:29.364Z,12.70
2018-04-10T06:31:58.438Z,11.43
2018-04-10T06:34:28.008Z,11.97
2018-04-10T06:39:33.041Z,14.80
2018-04-10T06:42:02.509Z,14.23
2018-04-10T06:44:31.564Z,14.45
2018-04-10T06:47:00.618Z,13.13
2018-04-10T06:49:30.514Z,12.40
2018-04-10T06:51:59.570Z,13.50
2018-04-10T06:54:29.142Z,15.30
2018-04-10T06:59:34.143Z,16.40
2018-04-10T07:02:03.302Z,16.70
2018-04-10T07:04:32.806Z,15.90
2018-04-10T07:07:01.968Z,17.07
2018-04-10T07:09:31.032Z,17.07
2018-04-10T07:12:00.594Z,16.30
2018-04-10T07:14:29.714Z,15.87
2018-04-10T07:19:35.518Z,17.53
2018-04-10T07:22:04.584Z,16.27
2018-04-10T07:27:09.377Z,17.40
2018-04-10T07:29:38.687Z,17.53
2018-04-10T07:32:07.852Z,18.40
2018-04-10T07:34:36.942Z,18.00
2018-04-10T07:39:52.086Z,18.77
2018-04-10T07:42:21.332Z,18.90
2018-04-10T07:44:50.374Z,18.10
2018-04-10T07:47:20.092Z,17.23
2018-04-10T07:49:49.155Z,19.65
2018-04-10T07:52:18.716Z,19.23
2018-04-10T07:54:47.763Z,17.77
2018-04-10T07:57:16.820Z,17.63
2018-04-10T07:59:46.346Z,16.30
2018-04-10T08:02:15.374Z,16.93
2018-04-10T08:04:44.442Z,17.77
2018-04-10T08:07:13.505Z,18.20
2018-04-10T08:09:42.992Z,17.40
2018-04-10T08:12:12.025Z,18.83
2018-04-10T08:14:41.984Z,17.40
2018-04-10T08:17:11.037Z,17.80
2018-04-10T08:19:40.137Z,17.30
2018-04-10T08:22:09.350Z,17.90
2018-04-10T08:24:38.408Z,20.33
2018-04-10T08:27:08.110Z,20.10
2018-04-10T08:29:37.166Z,19.70
2018-04-10T08:32:06.949Z,19.57
2018-04-10T08:34:36.003Z,19.03
2018-04-10T08:37:05.062Z,18.90
2018-04-10T08:39:34.452Z,18.13
2018-04-10T08:42:03.493Z,20.35
2018-04-10T08:47:09.633Z,20.30
2018-04-10T08:49:38.705Z,20.95
2018-04-10T08:52:08.357Z,20.30
2018-04-10T08:54:37.426Z,19.37
2018-04-10T09:02:18.956Z,21.70
2018-04-10T09:04:48.001Z,20.77
2018-04-10T09:07:17.555Z,21.02
2018-04-10T09:09:46.598Z,21.15
2018-04-10T09:12:17.154Z,20.67
2018-04-10T09:14:46.229Z,18.57
2018-04-10T09:17:17.343Z,20.57
2018-04-10T09:19:46.891Z,19.97
2018-04-10T09:22:16.638Z,20.73
2018-04-10T09:24:46.044Z,20.00
2018-04-10T09:27:16.161Z,19.20
2018-04-10T09:29:45.657Z,18.53
2018-04-10T09:32:15.983Z,18.67
2018-04-10T09:34:45.937Z,18.87
2018-04-10T09:37:16.337Z,20.17
2018-04-10T09:39:45.402Z,19.67
2018-04-10T09:44:53.197Z,19.87
2018-04-10T09:49:58.038Z,20.58
2018-04-10T09:52:27.398Z,20.77
2018-04-10T09:54:56.469Z,20.40
2018-04-10T09:57:25.853Z,21.10
2018-04-10T09:59:54.936Z,19.20
2018-04-10T10:02:24.156Z,18.40
2018-04-10T10:04:53.595Z,18.47
2018-04-10T10:07:22.630Z,18.60
2018-04-10T10:09:51.797Z,19.57
2018-04-10T10:12:20.867Z,19.43
2018-04-10T10:14:49.961Z,18.40
2018-04-10T10:17:19.827Z,20.40
2018-04-10T10:19:48.922Z,17.77
2018-04-10T10:22:18.606Z,17.93
2018-04-10T10:24:47.672Z,16.80
2018-04-10T10:27:17.334Z,17.03
2018-04-10T10:29:46.395Z,17.37
2018-04-10T10:32:16.483Z,18.87
2018-04-10T10:34:45.541Z,17.20
2018-04-10T10:37:15.069Z,17.20
2018-04-10T10:39:47.564Z,17.80
2018-04-10T10:42:16.600Z,18.00
2018-04-10T10:44:46.534Z,16.57
2018-04-10T10:47:16.944Z,14.73
2018-04-10T10:49:47.010Z,16.20
2018-04-10T10:52:16.609Z,15.20
2018-04-10T10:54:46.742Z,14.95
2018-04-10T10:57:16.701Z,15.10
2018-04-10T11:02:22.209Z,15.57
2018-04-10T11:04:51.355Z,15.95
2018-04-10T11:07:20.541Z,15.00
2018-04-10T11:09:51.253Z,15.60
2018-04-10T11:12:20.537Z,16.35
2018-04-10T11:14:50.646Z,15.60
2018-04-10T11:17:20.058Z,15.27
2018-04-10T11:19:49.097Z,14.47
2018-04-10T11:22:18.388Z,13.00
2018-04-10T11:24:47.450Z,13.37
2018-04-10T11:27:16.519Z,13.27
2018-04-10T11:29:47.214Z,12.30
2018-04-10T11:32:18.030Z,12.00
2018-04-10T11:34:47.788Z,12.83
2018-04-10T11:37:17.106Z,12.87
2018-04-10T11:39:47.193Z,12.13
2018-04-10T11:42:16.241Z,13.02
2018-04-10T11:44:46.676Z,11.00
2018-04-10T11:47:15.702Z,12.87
2018-04-10T11:49:45.992Z,14.60
2018-04-10T11:52:15.070Z,15.40
2018-04-10T11:54:46.161Z,13.77
2018-04-10T11:57:15.223Z,14.27
2018-04-10T12:02:20.610Z,13.70
2018-04-10T12:07:25.514Z,12.05
2018-04-10T12:09:54.576Z,12.60
2018-04-10T12:12:23.627Z,12.70
2018-04-10T12:14:52.686Z,12.47
2018-04-10T12:17:22.133Z,13.05
2018-04-10T12:19:51.192Z,12.87
2018-04-10T12:22:20.739Z,12.67
2018-04-10T12:24:51.200Z,13.27
2018-04-10T12:27:20.249Z,13.30
2018-04-10T12:32:25.583Z,14.60
2018-04-10T12:34:56.319Z,15.07
2018-04-10T12:37:25.425Z,14.50
2018-04-10T12:39:55.532Z,14.50
2018-04-10T12:42:24.590Z,13.33
2018-04-10T12:44:53.653Z,11.93
2018-04-10T12:49:59.004Z,14.57
2018-04-10T12:52:28.068Z,16.27
2018-04-10T12:54:57.146Z,14.33
2018-04-10T12:57:26.197Z,14.23
2018-04-10T12:59:55.253Z,13.47
2018-04-10T13:05:00.929Z,14.95
2018-04-10T13:07:29.999Z,16.30
2018-04-10T13:09:59.389Z,15.00
2018-04-10T13:12:29.679Z,14.00
2018-04-10T13:14:59.146Z,14.27
2018-04-10T13:20:04.272Z,17.12
2018-04-10T13:22:33.305Z,15.82
2018-04-10T13:25:02.385Z,15.70
2018-04-10T13:27:31.909Z,16.53
2018-04-10T13:30:00.977Z,15.30
2018-04-10T13:32:30.467Z,18.90
2018-04-10T13:34:59.481Z,15.20
2018-04-10T13:37:28.544Z,14.27
2018-04-10T13:39:58.015Z,16.07
2018-04-10T13:42:27.086Z,14.57
2018-04-10T13:44:56.141Z,15.80
2018-04-10T13:47:25.209Z,13.57
2018-04-10T13:49:54.677Z,14.13
2018-04-10T13:52:23.737Z,16.93
2018-04-10T13:54:57.593Z,20.20
2018-04-10T13:57:30.749Z,18.70
2018-04-10T14:00:03.439Z,15.57
2018-04-10T14:02:36.714Z,15.17
2018-04-10T14:05:09.646Z,16.97
2018-04-10T14:07:43.241Z,15.93
2018-04-10T14:10:16.831Z,16.30
2018-04-10T14:15:31.316Z,17.77
2018-04-10T14:18:03.946Z,15.47
2018-04-10T14:20:41.990Z,16.60
2018-04-10T14:23:14.138Z,16.33
2018-04-10T14:25:48.289Z,15.77
2018-04-10T14:28:17.325Z,15.07
2018-04-10T14:30:47.963Z,15.90
2018-04-10T14:33:17.307Z,15.90
2018-04-10T14:35:47.377Z,15.90
2018-04-10T14:38:16.418Z,16.17
2018-04-10T14:40:46.829Z,14.77
2018-04-10T14:43:15.893Z,14.50
2018-04-10T14:45:46.045Z,16.17
2018-04-10T14:48:15.700Z,15.00
2018-04-10T14:50:46.125Z,14.90
2018-04-10T14:53:15.198Z,15.10
2018-04-10T14:55:44.502Z,13.50
2018-04-10T14:58:13.543Z,14.40
2018-04-10T15:03:18.565Z,13.95
2018-04-10T15:05:47.636Z,14.70
2018-04-10T15:08:17.317Z,14.77
2018-04-10T15:13:22.202Z,14.15
2018-04-10T15:15:51.263Z,14.60
2018-04-10T15:18:21.497Z,14.10
2018-04-10T15:20:50.583Z,15.20
2018-04-10T15:23:19.649Z,14.17
2018-04-10T15:25:48.714Z,14.60
2018-04-10T15:28:17.954Z,13.52
2018-04-10T15:30:47.354Z,13.67
2018-04-10T15:33:16.414Z,12.88
2018-04-10T15:35:47.302Z,12.27
2018-04-10T15:38:17.254Z,12.60
2018-04-10T15:40:46.786Z,11.90
2018-04-10T15:43:15.866Z,11.73
2018-04-10T15:45:45.801Z,8.97
2018-04-10T15:48:15.320Z,3.63
2018-04-10T15:50:45.330Z,3.70
2018-04-10T15:53:14.793Z,3.50
2018-04-10T15:55:44.789Z,3.90
2018-04-10T15:58:13.849Z,3.87
2018-04-10T16:00:45.054Z,3.40
2018-04-10T16:03:14.082Z,3.13
2018-04-10T16:08:38.941Z,4.43
2018-04-10T16:11:08.424Z,4.40
2018-04-10T16:13:37.481Z,4.03
2018-04-10T16:16:06.521Z,4.60
2018-04-10T16:18:36.707Z,3.97
2018-04-10T16:21:05.747Z,3.30
2018-04-10T16:23:35.183Z,3.60
2018-04-10T16:26:04.217Z,3.10
2018-04-10T16:28:33.272Z,3.37
2018-04-10T16:31:02.320Z,3.20
2018-04-10T16:33:31.381Z,3.10
2018-04-10T16:36:00.442Z,3.57
2018-04-10T16:38:29.846Z,3.25
2018-04-10T16:43:35.390Z,4.25
2018-04-10T16:46:04.473Z,3.95
2018-04-10T16:48:33.837Z,3.50
2018-04-10T16:51:02.889Z,3.87
2018-04-10T16:56:07.668Z,3.70
2018-04-10T16:58:36.721Z,3.70
2018-04-10T17:01:06.699Z,3.13
2018-04-10T17:03:35.758Z,3.40
2018-04-10T17:08:40.541Z,4.20
2018-04-10T17:11:09.657Z,3.00
2018-04-10T17:13:38.719Z,3.67
2018-04-10T17:16:07.802Z,3.33
2018-04-10T17:18:37.131Z,3.00
2018-04-10T17:21:06.177Z,3.20
2018-04-10T17:23:35.230Z,3.00
2018-04-10T17:26:04.285Z,3.67
2018-04-10T17:28:33.946Z,2.80
2018-04-10T17:31:03.263Z,3.27
2018-04-10T17:36:09.110Z,3.60
2018-04-10T17:38:38.146Z,4.20
2018-04-10T17:41:07.251Z,4.40
2018-04-10T17:43:36.298Z,4.17
2018-04-10T17:46:05.350Z,4.93
2018-04-10T17:48:34.857Z,4.80
2018-04-10T17:51:03.982Z,4.37
2018-04-10T17:53:34.618Z,4.30
2018-04-10T17:56:05.492Z,3.90
2018-04-10T17:58:39.494Z,4.47
2018-04-10T18:01:12.547Z,3.73
2018-04-10T18:03:45.116Z,5.30
2018-04-10T18:06:16.433Z,4.13
2018-04-10T18:08:45.907Z,5.47
2018-04-10T18:11:19.558Z,5.23
2018-04-10T18:13:50.023Z,4.50
2018-04-10T18:16:22.860Z,4.00
2018-04-10T18:18:56.503Z,4.60
2018-04-10T18:21:30.027Z,4.43
2018-04-10T18:24:04.417Z,3.50
2018-04-10T18:26:41.997Z,3.93
2018-04-10T18:29:15.781Z,5.93
2018-04-10T18:31:49.447Z,7.20
2018-04-10T18:34:19.368Z,7.03
2018-04-10T18:36:52.277Z,6.97
2018-04-10T18:39:26.056Z,7.40
2018-04-10T18:42:01.145Z,8.00
2018-04-10T18:44:36.549Z,7.93
2018-04-10T18:52:20.213Z,5.70
2018-04-10T18:54:54.761Z,5.20
2018-04-10T18:57:27.907Z,4.60
2018-04-10T19:00:01.698Z,3.87
2018-04-10T19:02:35.855Z,4.00
2018-04-10T19:10:31.859Z,3.35
2018-04-10T19:13:06.891Z,3.60
2018-04-10T19:15:36.510Z,3.13
2018-04-10T19:18:05.617Z,4.40
2018-04-10T19:20:34.611Z,3.27
2018-04-10T19:23:03.674Z,2.90
2018-04-10T19:25:32.744Z,2.53
2018-04-10T19:28:01.804Z,2.90
2018-04-10T19:30:30.865Z,3.15
2018-04-10T19:33:00.041Z,2.90
2018-04-10T19:35:29.183Z,3.20
2018-04-10T19:37:58.248Z,3.22
2018-04-10T19:40:30.752Z,2.60
2018-04-10T19:42:59.854Z,2.57
2018-04-10T19:45:28.935Z,2.53
2018-04-10T19:47:58.001Z,2.07
2018-04-10T19:55:40.045Z,2.10
2018-04-10T20:00:44.804Z,2.37
2018-04-10T20:03:15.005Z,1.93
2018-04-10T20:05:44.060Z,2.30
2018-04-10T20:08:14.028Z,2.20
2018-04-10T20:10:43.094Z,2.50
2018-04-10T20:13:12.162Z,2.50
2018-04-10T20:15:41.249Z,2.10
2018-04-10T20:18:10.310Z,2.77
2018-04-10T20:23:18.912Z,2.70
2018-04-10T20:25:50.499Z,3.95
2018-04-10T20:28:20.038Z,4.37
2018-04-10T20:30:50.105Z,4.67
2018-04-10T20:33:21.885Z,4.87
2018-04-10T20:35:52.500Z,5.97
2018-04-10T20:38:22.289Z,5.00
2018-04-10T20:40:52.322Z,5.40
2018-04-10T20:43:27.063Z,6.77
2018-04-10T20:45:56.301Z,6.90
2018-04-10T20:48:25.624Z,6.20
2018-04-10T20:50:54.729Z,7.03
2018-04-10T20:56:00.278Z,10.05
2018-04-10T20:58:29.919Z,10.20
2018-04-10T21:01:00.125Z,8.30
2018-04-10T21:03:29.564Z,8.57
2018-04-10T21:05:59.033Z,9.13
2018-04-10T21:08:28.386Z,7.60
2018-04-10T21:10:58.661Z,7.60
2018-04-10T21:13:27.982Z,9.10
2018-04-10T21:15:57.596Z,8.33
2018-04-10T21:21:03.474Z,9.90
2018-04-10T21:23:32.769Z,8.63
2018-04-10T21:26:02.086Z,9.90
2018-04-10T21:28:31.169Z,10.73
2018-04-10T21:31:00.259Z,10.60
2018-04-10T21:33:29.406Z,12.55
2018-04-10T21:35:58.546Z,12.82
2018-04-10T21:38:29.580Z,11.70
2018-04-10T21:43:34.606Z,11.88
2018-04-10T21:46:04.619Z,10.67
2018-04-10T21:48:34.823Z,10.10
2018-04-10T21:51:04.084Z,9.97
2018-04-10T21:53:33.294Z,10.00
2018-04-10T21:56:02.517Z,9.97
2018-04-10T21:58:32.392Z,12.80
2018-04-10T22:01:01.449Z,11.37
2018-04-10T22:03:30.538Z,12.80
2018-04-10T22:06:00.812Z,14.50
2018-04-10T22:08:29.849Z,13.00
2018-04-10T22:10:58.905Z,15.60
2018-04-10T22:13:28.021Z,14.67
2018-04-10T22:15:57.093Z,13.37
2018-04-10T22:18:26.141Z,13.63
2018-04-10T22:20:55.210Z,13.87
2018-04-10T22:23:25.359Z,15.00
2018-04-10T22:25:54.476Z,14.77
2018-04-10T22:30:59.446Z,17.40
2018-04-10T22:33:29.477Z,18.45
2018-04-10T22:35:58.467Z,16.27
2018-04-10T22:38:27.526Z,15.70
2018-04-10T22:40:57.682Z,18.12
2018-04-10T22:43:26.750Z,17.00
2018-04-10T22:45:55.811Z,16.20
2018-04-10T22:48:24.884Z,17.05
2018-04-10T22:50:54.129Z,17.30
2018-04-10T22:53:24.158Z,15.17
2018-04-10T22:55:53.225Z,15.23
2018-04-10T22:58:23.283Z,15.77
2018-04-10T23:00:52.466Z,16.60
2018-04-10T23:03:21.522Z,16.93
2018-04-10T23:05:50.585Z,16.03
2018-04-10T23:08:20.655Z,20.12
2018-04-10T23:10:49.921Z,15.80
2018-04-10T23:13:18.953Z,15.90
2018-04-10T23:15:48.932Z,16.63
2018-04-10T23:18:18.232Z,16.73
2018-04-10T23:20:48.197Z,17.47
2018-04-10T23:23:18.238Z,17.20
2018-04-10T23:25:59.071Z,15.67
2018-04-10T23:28:28.103Z,21.00
2018-04-10T23:30:57.274Z,18.73
2018-04-10T23:36:01.591Z,23.33
2018-04-10T23:38:30.645Z,22.43
2018-04-10T23:40:59.770Z,22.80
2018-04-10T23:43:28.857Z,28.95
2018-04-10T23:45:58.817Z,29.35
2018-04-10T23:48:27.875Z,23.47
2018-04-10T23:50:56.926Z,23.40
2018-04-10T23:53:25.983Z,22.10
2018-04-10T23:55:55.081Z,21.83
2018-04-10T23:58:24.160Z,26.27
